Grant, NE

4:46 AM MDT on September 16, 2014 (GMT -0600)
Imperial Municipal | Change Station
CLOSE
Current Station
Airport
Location: Imperial,
Elevation: 3274 ft
Nearby Weather Stations

Elev 3274 ft 40.51 °N, 101.62 °W | Updated 53 minutes ago

Mostly Cloudy
Mostly Cloudy
52 °F
Feels Like 52 °F
N
10
Wind Variable Wind from South

Today
High -- | Low -- °F
--% Chance of Precip.
Yesterday
High -- | Low -- °F
Precip. -- in
6:28 AM 6:54 PM
Waning Gibbous, 46% visible
Pressure 30.14 in
Visibility 10.0 miles
Clouds Clear
Dew Point 48 °F
Humidity 86%
Rainfall 0.00 in
Snow Depth Not available.
UV 0 out of 12
Pollen 5.10 out of 12
Air Quality Not available.
Flu Activity Not available.
METAR KIML 160953Z AUTO 17009KT 10SM CLR 11/09 A3017 RMK AO2 RAB0859E07 SLP204 P0000 T01110089

More Conditions Fewer Conditions

Pressure 30.14 in
Visibility 10.0 miles
Clouds Clear
Dew Point 48 °F
Humidity 86%
Rainfall 0.00 in
Snow Depth Not available.
UV 0 out of 12
Pollen 5.10 out of 12
Air Quality Not available.
Flu Activity Not available.
METAR KIML 160953Z AUTO 17009KT 10SM CLR 11/09 A3017 RMK AO2 RAB0859E07 SLP204 P0000 T01110089

More Conditions Fewer Conditions

10-Day Weather Forecast

Almanac

Astronomy

Sep. 16, 2014 Rise Set
Actual Time 6:28 AM MDT 6:54 PM MDT
Civil Twilight 6:00 AM MDT 7:21 PM MDT
Nautical Twilight 5:28 AM MDT 7:53 PM MDT
Astronomical Twilight 4:55 AM MDT 8:26 PM MDT
Moon No Moon Rise 2:21 PM MDT
Length of Visible Light 13h 20m
Length of Day
12h 25m
Tomorrow will be 2m 42s shorter.
Waning Gibbous, 46% of the Moon is Illuminated
Today
Waning Gibbous
Sep 24
New
Oct 1
First Quarter
Oct 8
Full
Oct 15
Last Quarter

Today's Extremes

State Highs State Lows

Community

WunderPhotos

Upload Photos

1,753,720 photos uploaded!

WunderBlogs® & News

Nearby

Snow Depth

Station Depth Elevation
No new snow has been reported.

Earthquake Activity

City Distance Mag. Time & Date
No recent earthquake activity has been reported nearby.
Minimum magnitude displayed is 2.5.

Coastal Water Temperatures

Place Temperature
No Stations Reporting

Nearby Weather Stations